Time;durP1;ratioP1;P1;durP2;ratioP2;P2;SDS_P1;SDS_P2;PMS_P1;PMS_P2;Temp;Humidity;BMP_temperature;BMP_pressure;BME280_temperature;BME280_humidity;BME280_pressure;Samples;Min_cycle;Max_cycle;Signal;HPM_P1;HPM_P2
2022/03/01 00:01:33;;;;;;;14.77;9.02;;;4.80;92.70;;;;;;5011133;28;20050;-72
2022/03/01 00:03:59;;;;;;;16.98;9.20;;;4.80;92.90;;;;;;5013258;28;20038;-73
2022/03/01 00:06:24;;;;;;;13.85;7.80;;;4.80;93.10;;;;;;5012120;28;20461;-73
2022/03/01 00:08:50;;;;;;;13.70;8.07;;;4.80;93.00;;;;;;5012119;28;20042;-73
2022/03/01 00:11:15;;;;;;;13.32;7.95;;;4.80;92.70;;;;;;5012180;28;20517;-73
2022/03/01 00:13:41;;;;;;;14.55;8.90;;;4.80;92.80;;;;;;5018142;28;20121;-73
2022/03/01 00:16:06;;;;;;;16.58;8.65;;;4.80;92.70;;;;;;5026045;28;20048;-72
2022/03/01 00:18:32;;;;;;;20.48;10.57;;;4.70;93.30;;;;;;5026924;28;20500;-73
2022/03/01 00:20:58;;;;;;;20.48;10.55;;;4.70;93.30;;;;;;5013381;28;20042;-73
2022/03/01 00:23:23;;;;;;;15.77;9.15;;;4.70;93.20;;;;;;5012793;28;20065;-73
2022/03/01 00:25:49;;;;;;;15.35;8.98;;;4.80;93.00;;;;;;5011861;28;20125;-72
2022/03/01 00:28:14;;;;;;;12.90;8.13;;;4.70;92.90;;;;;;4995302;28;20398;-73
2022/03/01 00:30:40;;;;;;;14.20;7.97;;;4.80;93.10;;;;;;5012327;28;20564;-73
2022/03/01 00:33:05;;;;;;;15.18;8.98;;;4.70;92.90;;;;;;5013165;28;20053;-73
2022/03/01 00:35:31;;;;;;;13.70;8.10;;;4.60;93.30;;;;;;5025119;28;20037;-73
2022/03/01 00:37:57;;;;;;;14.50;8.52;;;4.60;93.50;;;;;;5031633;28;20041;-73
2022/03/01 00:40:23;;;;;;;13.88;8.43;;;4.60;93.10;;;;;;5015295;28;20041;-72
2022/03/01 00:42:48;;;;;;;14.57;8.60;;;4.60;93.50;;;;;;5011372;28;20037;-73
2022/03/01 00:45:14;;;;;;;14.60;7.95;;;4.60;93.40;;;;;;4995039;28;20049;-73
2022/03/01 00:47:40;;;;;;;14.48;8.73;;;4.60;93.40;;;;;;5011280;28;20069;-73
2022/03/01 00:50:06;;;;;;;13.23;7.72;;;4.50;93.60;;;;;;5012030;28;20133;-73
2022/03/01 00:52:32;;;;;;;15.15;8.18;;;4.60;93.50;;;;;;5015255;28;20037;-73
2022/03/01 00:54:57;;;;;;;12.50;8.10;;;4.50;93.60;;;;;;5017993;28;20048;-73
2022/03/01 00:57:23;;;;;;;12.75;7.45;;;4.60;93.40;;;;;;5011410;28;20124;-72
2022/03/01 00:59:49;;;;;;;13.82;8.27;;;4.50;93.60;;;;;;5022658;28;20349;-72
2022/03/01 01:02:14;;;;;;;13.80;8.07;;;4.50;93.80;;;;;;5022251;28;20045;-73
2022/03/01 01:04:40;;;;;;;16.35;8.57;;;4.50;94.10;;;;;;5011730;28;20467;-73
2022/03/01 01:07:05;;;;;;;14.50;8.43;;;4.50;94.00;;;;;;5012787;28;20118;-73
2022/03/01 01:09:31;;;;;;;15.30;8.88;;;4.50;94.10;;;;;;5012591;28;20049;-73
2022/03/01 01:11:57;;;;;;;13.25;8.25;;;4.50;93.90;;;;;;5014102;28;20053;-72
2022/03/01 01:14:23;;;;;;;14.13;8.18;;;4.40;94.50;;;;;;5016197;28;20034;-72
2022/03/01 01:16:49;;;;;;;14.18;8.65;;;4.40;95.00;;;;;;5026490;28;20037;-73
2022/03/01 01:19:14;;;;;;;14.55;8.82;;;4.40;94.50;;;;;;5014475;28;20506;-73
2022/03/01 01:24:24;;;;;;;13.27;8.05;;;4.30;95.10;;;;;;5016173;28;20069;-73
2022/03/01 01:26:49;;;;;;;14.75;8.27;;;4.20;95.40;;;;;;5017208;28;20455;-73
2022/03/01 01:29:15;;;;;;;16.27;8.65;;;4.20;95.30;;;;;;5014883;28;20043;-72
2022/03/01 01:31:40;;;;;;;14.32;8.75;;;4.30;95.70;;;;;;4998531;28;20061;-73
2022/03/01 01:34:06;;;;;;;13.63;8.43;;;4.20;95.90;;;;;;5015863;28;20042;-72
2022/03/01 01:36:32;;;;;;;15.60;8.45;;;4.10;96.20;;;;;;5014695;28;20045;-73
2022/03/01 01:38:57;;;;;;;14.43;9.02;;;3.90;96.90;;;;;;5047672;28;20492;-72
2022/03/01 01:41:23;;;;;;;13.35;8.68;;;3.90;97.30;;;;;;5014712;28;20045;-73
2022/03/01 01:43:48;;;;;;;14.18;8.70;;;3.90;97.50;;;;;;4998138;28;20087;-72
2022/03/01 01:46:14;;;;;;;16.27;9.38;;;3.90;97.20;;;;;;5016777;28;20088;-73
2022/03/01 01:48:40;;;;;;;14.65;9.02;;;4.00;96.90;;;;;;5034302;28;20037;-73
2022/03/01 01:51:05;;;;;;;13.80;7.95;;;4.00;96.70;;;;;;5017246;28;20046;-72
2022/03/01 01:53:31;;;;;;;14.77;8.65;;;4.00;96.50;;;;;;5014415;28;20038;-73
2022/03/01 01:55:57;;;;;;;15.60;8.70;;;4.10;96.40;;;;;;5014115;28;20387;-72
2022/03/01 01:58:22;;;;;;;14.23;8.77;;;4.00;96.50;;;;;;5014592;28;20046;-72
2022/03/01 02:00:48;;;;;;;14.60;9.02;;;4.10;96.10;;;;;;5015634;28;20041;-72
2022/03/01 02:03:15;;;;;;;14.55;8.85;;;4.00;96.20;;;;;;5013639;28;20104;-72
2022/03/01 02:05:41;;;;;;;15.48;8.55;;;3.90;96.80;;;;;;5013572;28;20065;-72
2022/03/01 02:08:06;;;;;;;14.35;8.52;;;3.90;96.70;;;;;;5020587;28;20114;-72
2022/03/01 02:10:32;;;;;;;14.80;8.95;;;3.90;96.60;;;;;;5035353;28;20036;-72
2022/03/01 02:12:58;;;;;;;14.30;8.50;;;3.90;96.40;;;;;;5024676;28;20066;-72
2022/03/01 02:15:24;;;;;;;14.68;8.95;;;3.90;96.60;;;;;;5021861;28;20038;-72
2022/03/01 02:17:49;;;;;;;14.50;8.68;;;3.90;96.90;;;;;;5013749;28;20449;-72
2022/03/01 02:20:20;;;;;;;14.07;9.43;;;3.90;97.00;;;;;;5013337;28;20044;-72
2022/03/01 02:22:51;;;;;;;15.38;8.35;;;3.90;97.00;;;;;;5013811;28;20076;-72
2022/03/01 02:25:17;;;;;;;14.95;8.27;;;3.90;97.10;;;;;;5013421;28;20038;-72
2022/03/01 02:27:42;;;;;;;15.70;9.13;;;3.90;97.10;;;;;;5014835;28;20033;-72
2022/03/01 02:30:09;;;;;;;16.77;8.93;;;3.80;97.40;;;;;;5013747;28;20042;-72
2022/03/01 02:32:36;;;;;;;14.05;8.63;;;3.80;97.60;;;;;;5020619;28;20064;-72
2022/03/01 02:35:02;;;;;;;15.40;9.00;;;3.70;97.70;;;;;;5024259;28;20068;-72
2022/03/01 02:37:28;;;;;;;15.02;9.18;;;3.80;97.70;;;;;;5013244;28;20172;-72
2022/03/01 02:39:53;;;;;;;16.25;9.65;;;3.80;97.70;;;;;;5014987;28;20109;-72
2022/03/01 02:42:20;;;;;;;14.93;9.35;;;3.80;97.70;;;;;;5029835;28;20564;-72
2022/03/01 02:44:48;;;;;;;16.52;8.40;;;3.70;97.90;;;;;;4999343;28;20118;-72
2022/03/01 02:47:14;;;;;;;14.50;8.38;;;3.70;97.90;;;;;;5015600;28;20041;-72
2022/03/01 02:49:40;;;;;;;14.18;9.18;;;3.70;98.30;;;;;;5030482;28;20052;-72
2022/03/01 02:52:06;;;;;;;14.50;9.13;;;3.60;98.80;;;;;;5032350;28;20037;-72
2022/03/01 02:54:32;;;;;;;15.48;9.32;;;3.40;99.50;;;;;;5020673;28;20041;-72
2022/03/01 02:57:00;;;;;;;17.10;9.93;;;3.40;99.30;;;;;;5012822;28;20046;-72
2022/03/01 02:59:27;;;;;;;16.98;9.30;;;3.30;99.90;;;;;;4997119;28;20030;-72
2022/03/01 03:01:52;;;;;;;15.25;9.52;;;3.20;99.90;;;;;;5013066;28;20549;-72
2022/03/01 03:04:18;;;;;;;14.52;9.02;;;3.10;99.90;;;;;;5014017;28;20046;-72
2022/03/01 03:06:43;;;;;;;17.20;9.57;;;3.10;99.90;;;;;;5032824;28;20159;-72
2022/03/01 03:09:09;;;;;;;14.68;9.13;;;3.00;99.90;;;;;;5011838;28;20411;-72
2022/03/01 03:11:35;;;;;;;14.00;8.98;;;3.00;99.90;;;;;;5012985;28;20406;-72
2022/03/01 03:14:00;;;;;;;14.90;9.00;;;3.00;99.90;;;;;;5013992;28;20076;-72
2022/03/01 03:16:27;;;;;;;15.00;8.88;;;3.00;99.90;;;;;;5001568;28;20068;-72
2022/03/01 03:18:52;;;;;;;15.30;9.25;;;3.20;99.90;;;;;;5031378;28;20041;-72
2022/03/01 03:21:18;;;;;;;15.60;9.50;;;3.30;99.80;;;;;;5026680;28;20091;-72
2022/03/01 03:23:45;;;;;;;14.93;9.10;;;3.20;99.90;;;;;;5013044;28;20448;-72
2022/03/01 03:26:11;;;;;;;14.73;9.35;;;3.20;99.90;;;;;;5013936;28;20034;-72
2022/03/01 03:28:36;;;;;;;16.27;10.05;;;3.30;99.90;;;;;;4996284;28;20069;-72
2022/03/01 03:31:02;;;;;;;16.02;9.68;;;3.30;99.90;;;;;;4998709;28;20401;-72
2022/03/01 03:33:28;;;;;;;14.73;9.57;;;3.20;99.90;;;;;;5033872;28;20068;-72
2022/03/01 03:35:54;;;;;;;17.23;9.43;;;3.20;99.90;;;;;;5028555;28;20076;-72
2022/03/01 03:38:20;;;;;;;15.98;9.43;;;3.20;99.90;;;;;;5011874;28;20056;-72
2022/03/01 03:40:46;;;;;;;15.50;9.68;;;3.30;99.90;;;;;;5013634;28;20034;-72
2022/03/01 03:43:11;;;;;;;15.95;8.90;;;3.20;99.90;;;;;;5012484;28;20489;-72
2022/03/01 03:45:37;;;;;;;15.93;9.63;;;3.20;99.90;;;;;;5012325;28;20054;-72
2022/03/01 03:48:03;;;;;;;15.52;9.63;;;3.30;99.80;;;;;;5011926;28;20502;-72
2022/03/01 03:50:29;;;;;;;15.50;9.00;;;3.30;99.70;;;;;;5011954;28;20094;-72
2022/03/01 03:52:54;;;;;;;17.05;9.18;;;3.50;99.30;;;;;;5012376;28;20131;-72
2022/03/01 03:55:20;;;;;;;15.68;9.45;;;3.50;99.10;;;;;;5012450;28;20042;-72
2022/03/01 03:57:45;;;;;;;16.13;9.15;;;3.40;99.20;;;;;;5011939;28;20045;-72
2022/03/01 04:00:15;;;;;;;17.17;9.75;;;3.30;99.40;;;;;;5012214;28;20457;-72
2022/03/01 04:02:43;;;;;;;14.93;9.55;;;3.30;99.70;;;;;;5013350;28;20092;-72
2022/03/01 04:05:12;;;;;;;15.20;8.85;;;3.20;99.90;;;;;;5012395;28;20049;-72
2022/03/01 04:07:39;;;;;;;17.02;9.68;;;3.30;99.70;;;;;;5011928;28;20046;-72
2022/03/01 04:10:05;;;;;;;15.70;9.10;;;3.40;99.10;;;;;;5012177;28;20084;-72
2022/03/01 04:12:31;;;;;;;15.88;9.45;;;3.40;99.00;;;;;;5012140;28;20473;-72
2022/03/01 04:14:57;;;;;;;18.92;9.90;;;3.40;99.30;;;;;;5013323;28;20121;-72
2022/03/01 04:17:22;;;;;;;15.38;9.35;;;3.40;99.10;;;;;;5024716;28;20046;-72
2022/03/01 04:19:48;;;;;;;16.27;9.82;;;3.50;98.60;;;;;;5033200;28;20120;-72
2022/03/01 04:22:14;;;;;;;17.40;10.10;;;3.40;98.90;;;;;;5024593;28;20394;-72
2022/03/01 04:24:39;;;;;;;18.10;9.68;;;3.30;99.30;;;;;;5032009;28;20037;-72
2022/03/01 04:27:05;;;;;;;15.70;9.40;;;3.30;99.50;;;;;;5026413;28;20045;-72
2022/03/01 04:29:31;;;;;;;17.42;10.68;;;3.20;99.90;;;;;;5011986;28;20522;-72
2022/03/01 04:31:56;;;;;;;16.20;9.68;;;3.10;99.90;;;;;;5011984;28;20041;-72
2022/03/01 04:34:22;;;;;;;18.35;10.50;;;3.10;99.90;;;;;;5018628;28;20117;-72
2022/03/01 04:36:47;;;;;;;16.30;9.80;;;3.00;99.90;;;;;;5030138;28;20041;-72
2022/03/01 04:39:13;;;;;;;16.15;9.90;;;3.00;99.90;;;;;;5016672;28;20042;-72
2022/03/01 04:41:39;;;;;;;16.77;9.68;;;3.00;99.90;;;;;;5017922;28;20060;-72
2022/03/01 04:44:08;;;;;;;16.63;10.27;;;3.00;99.90;;;;;;5011939;28;20050;-72
2022/03/01 04:46:33;;;;;;;17.13;10.10;;;2.90;99.90;;;;;;5022946;28;20050;-72
2022/03/01 04:48:59;;;;;;;15.30;9.38;;;2.90;99.90;;;;;;5015257;28;20041;-72
2022/03/01 04:51:25;;;;;;;16.73;9.82;;;3.00;99.90;;;;;;5015522;28;20057;-72
2022/03/01 04:53:51;;;;;;;16.45;9.95;;;3.00;99.90;;;;;;5015575;28;20046;-72
2022/03/01 04:56:17;;;;;;;16.80;9.48;;;3.10;99.90;;;;;;5015396;28;20037;-72
2022/03/01 04:58:43;;;;;;;17.27;9.40;;;3.20;99.90;;;;;;5015325;28;20180;-72
2022/03/01 05:01:09;;;;;;;16.30;9.18;;;3.30;99.80;;;;;;4998804;28;20044;-72
2022/03/01 05:03:34;;;;;;;13.98;9.00;;;3.40;99.30;;;;;;4999021;28;20042;-72
2022/03/01 05:06:00;;;;;;;17.95;10.07;;;3.30;99.50;;;;;;5016208;28;20076;-72
2022/03/01 05:08:30;;;;;;;16.33;9.20;;;3.30;99.70;;;;;;5016757;28;20092;-72
2022/03/01 05:10:57;;;;;;;16.88;9.82;;;3.40;99.30;;;;;;5015216;28;20041;-72
2022/03/01 05:13:22;;;;;;;15.25;9.70;;;3.40;99.10;;;;;;5031929;28;20049;-72
2022/03/01 05:15:48;;;;;;;16.77;10.43;;;3.30;99.40;;;;;;5031004;28;20179;-72
2022/03/01 05:18:13;;;;;;;17.05;10.38;;;3.20;99.90;;;;;;5036003;28;20069;-72
2022/03/01 05:20:39;;;;;;;15.57;9.90;;;3.20;99.90;;;;;;5024728;28;20042;-72
2022/03/01 05:23:04;;;;;;;16.35;10.20;;;3.20;99.90;;;;;;5018358;28;20065;-72
2022/03/01 05:25:30;;;;;;;17.63;10.40;;;3.20;99.90;;;;;;5007423;28;20030;-72
2022/03/01 05:27:55;;;;;;;16.98;10.15;;;3.30;99.90;;;;;;5000090;28;20498;-72
2022/03/01 05:30:22;;;;;;;16.40;9.70;;;3.40;99.60;;;;;;5025930;28;20033;-72
2022/03/01 05:32:52;;;;;;;16.00;9.57;;;3.30;99.80;;;;;;5034623;28;20056;-72
2022/03/01 05:35:21;;;;;;;17.88;9.65;;;3.30;99.90;;;;;;5031959;28;20049;-72
2022/03/01 05:37:49;;;;;;;18.77;9.27;;;3.40;99.70;;;;;;5034075;28;20112;-72
2022/03/01 05:40:16;;;;;;;18.05;9.90;;;3.50;99.10;;;;;;5029000;28;20512;-72
2022/03/01 05:42:42;;;;;;;13.85;8.93;;;3.50;99.20;;;;;;5018449;28;20038;-72
2022/03/01 05:45:08;;;;;;;16.55;9.82;;;3.60;98.80;;;;;;5033435;28;20391;-72
2022/03/01 05:47:34;;;;;;;16.10;9.88;;;3.60;98.80;;;;;;5012427;28;20038;-72
2022/03/01 05:49:59;;;;;;;16.83;10.05;;;3.50;98.90;;;;;;5024914;28;20658;-72
2022/03/01 05:52:25;;;;;;;18.27;10.68;;;3.50;99.10;;;;;;5002946;28;20490;-72
2022/03/01 05:54:51;;;;;;;16.38;10.07;;;3.40;99.90;;;;;;5004322;28;20053;-72
2022/03/01 05:57:16;;;;;;;17.10;10.02;;;3.30;99.90;;;;;;5000825;28;20145;-72
2022/03/01 05:59:42;;;;;;;17.92;10.27;;;3.20;99.90;;;;;;4998687;28;20148;-72
2022/03/01 06:02:08;;;;;;;14.52;9.48;;;3.20;99.90;;;;;;5003284;28;20771;-72
2022/03/01 06:04:33;;;;;;;17.33;10.43;;;3.30;99.90;;;;;;5008004;28;20160;-72
2022/03/01 06:06:59;;;;;;;18.65;10.82;;;3.40;99.70;;;;;;4987646;28;20037;-72
2022/03/01 06:09:24;;;;;;;19.15;9.75;;;3.30;99.90;;;;;;4989366;28;20155;-72
2022/03/01 06:11:50;;;;;;;15.38;9.48;;;3.40;99.90;;;;;;5000981;28;20120;-72
2022/03/01 06:14:16;;;;;;;16.67;10.30;;;3.40;99.50;;;;;;4985788;28;20128;-72
2022/03/01 06:16:44;;;;;;;14.55;9.25;;;3.50;99.30;;;;;;4990700;28;20099;-72
2022/03/01 06:19:10;;;;;;;15.43;9.32;;;3.40;99.60;;;;;;5001513;28;20048;-72
2022/03/01 06:21:35;;;;;;;16.77;10.02;;;3.50;99.30;;;;;;5010635;28;20490;-72
2022/03/01 06:24:02;;;;;;;16.38;9.63;;;3.40;99.30;;;;;;5029213;28;20140;-72
2022/03/01 06:26:28;;;;;;;17.95;10.75;;;3.40;99.60;;;;;;5030881;28;20437;-72
2022/03/01 06:28:54;;;;;;;16.20;9.57;;;3.30;99.90;;;;;;4993894;28;20053;-72
2022/03/01 06:31:19;;;;;;;18.05;9.90;;;3.30;99.90;;;;;;5004054;28;20096;-72
2022/03/01 06:33:45;;;;;;;16.35;9.88;;;3.30;99.90;;;;;;5012397;28;20112;-72
2022/03/01 06:36:11;;;;;;;15.88;9.65;;;3.30;99.90;;;;;;5006918;28;20045;-72
2022/03/01 06:38:36;;;;;;;16.92;9.60;;;3.30;99.90;;;;;;5016337;28;20113;-72
2022/03/01 06:41:02;;;;;;;16.35;10.32;;;3.40;99.90;;;;;;5032272;28;20064;-72
2022/03/01 06:43:28;;;;;;;17.10;10.45;;;3.40;99.80;;;;;;5027607;28;20446;-72
2022/03/01 06:45:54;;;;;;;14.68;8.80;;;3.30;99.90;;;;;;5030825;28;20059;-72
2022/03/01 06:48:20;;;;;;;15.32;9.77;;;3.40;99.90;;;;;;5008614;28;20049;-72
2022/03/01 06:50:46;;;;;;;17.02;10.45;;;3.40;99.70;;;;;;5011184;28;20152;-72
2022/03/01 06:53:13;;;;;;;16.92;10.10;;;3.30;99.90;;;;;;5015484;28;20559;-72
2022/03/01 06:55:43;;;;;;;18.92;10.57;;;3.40;99.90;;;;;;5030795;28;20049;-72
2022/03/01 06:58:09;;;;;;;16.65;10.57;;;3.40;99.90;;;;;;5021986;28;20092;-72
2022/03/01 07:00:35;;;;;;;17.67;10.15;;;3.40;99.90;;;;;;5021436;28;20087;-72
2022/03/01 07:03:01;;;;;;;16.58;10.68;;;3.50;99.90;;;;;;5033014;28;20033;-72
2022/03/01 07:05:26;;;;;;;16.90;10.40;;;3.50;99.90;;;;;;5030706;28;20029;-72
2022/03/01 07:07:52;;;;;;;18.10;10.95;;;3.50;99.90;;;;;;5032829;28;20486;-72
2022/03/01 07:10:17;;;;;;;19.13;11.50;;;3.60;99.90;;;;;;5028156;28;20084;-72
2022/03/01 07:12:44;;;;;;;15.82;10.23;;;3.60;99.90;;;;;;5012743;28;20091;-72
2022/03/01 07:15:11;;;;;;;18.77;11.48;;;3.60;99.90;;;;;;5023925;28;20077;-72
2022/03/01 07:17:36;;;;;;;19.48;11.23;;;3.60;99.90;;;;;;5012909;28;20500;-72
2022/03/01 07:20:03;;;;;;;18.90;11.20;;;3.60;99.90;;;;;;5018517;28;20038;-72
2022/03/01 07:22:29;;;;;;;18.77;10.98;;;3.50;99.90;;;;;;5013405;28;20037;-72
2022/03/01 07:24:54;;;;;;;18.90;11.50;;;3.60;99.90;;;;;;5012425;28;20512;-72
2022/03/01 07:27:20;;;;;;;19.42;12.00;;;3.60;99.90;;;;;;5018601;28;20471;-72
2022/03/01 07:29:45;;;;;;;19.25;11.38;;;3.50;99.90;;;;;;5028521;28;20045;-72
2022/03/01 07:32:11;;;;;;;18.75;11.52;;;3.50;99.90;;;;;;5032439;28;20037;-72
2022/03/01 07:34:37;;;;;;;19.20;12.10;;;3.50;99.90;;;;;;5031654;28;20048;-72
2022/03/01 07:37:04;;;;;;;18.58;11.68;;;3.50;99.90;;;;;;5015851;28;20076;-72
2022/03/01 07:39:29;;;;;;;18.70;11.85;;;3.40;99.90;;;;;;5029862;28;20532;-72
2022/03/01 07:41:55;;;;;;;19.77;12.48;;;3.50;99.90;;;;;;5032117;28;20046;-72
2022/03/01 07:44:21;;;;;;;19.63;11.73;;;3.50;99.90;;;;;;5033282;28;20379;-72
2022/03/01 07:46:46;;;;;;;18.55;11.65;;;3.50;99.90;;;;;;5048166;28;20048;-72
2022/03/01 07:49:12;;;;;;;17.52;11.48;;;3.60;99.90;;;;;;5032137;28;20052;-72
2022/03/01 07:51:37;;;;;;;19.48;12.07;;;3.60;99.90;;;;;;5006785;28;20041;-72
2022/03/01 07:54:04;;;;;;;20.27;12.05;;;3.60;99.90;;;;;;5012364;28;20457;-72
2022/03/01 07:56:30;;;;;;;17.58;11.35;;;3.60;99.90;;;;;;5029864;28;20041;-72
2022/03/01 07:58:55;;;;;;;18.33;11.40;;;3.80;99.90;;;;;;5031979;28;20056;-72
2022/03/01 08:01:22;;;;;;;20.65;11.57;;;3.80;99.90;;;;;;5024619;28;20063;-72
2022/03/01 08:03:48;;;;;;;17.95;10.57;;;3.80;99.90;;;;;;5031232;28;20464;-72
2022/03/01 08:06:14;;;;;;;17.27;10.93;;;3.80;99.90;;;;;;5033141;28;20042;-72
2022/03/01 08:08:39;;;;;;;20.73;11.98;;;3.90;99.90;;;;;;5030503;28;20041;-72
2022/03/01 08:11:05;;;;;;;18.52;10.60;;;3.90;99.90;;;;;;5031767;28;20041;-72
2022/03/01 08:13:35;;;;;;;17.90;11.05;;;3.80;99.90;;;;;;5031184;28;20072;-73
2022/03/01 08:16:01;;;;;;;18.00;11.25;;;3.90;99.90;;;;;;5031868;28;20045;-72
2022/03/01 08:18:27;;;;;;;18.73;11.38;;;3.80;99.90;;;;;;5031887;28;20130;-72
2022/03/01 08:20:52;;;;;;;17.85;10.15;;;3.90;99.90;;;;;;5015261;28;20126;-72
2022/03/01 08:23:18;;;;;;;16.80;10.95;;;4.00;99.90;;;;;;5019707;28;20041;-73
2022/03/01 08:25:44;;;;;;;20.05;11.23;;;4.10;99.90;;;;;;5016119;28;20474;-73
2022/03/01 08:28:10;;;;;;;17.98;11.57;;;4.10;99.90;;;;;;5026047;28;20046;-73
2022/03/01 08:30:36;;;;;;;19.13;11.88;;;4.10;99.90;;;;;;5035981;28;20048;-73
2022/03/01 08:33:03;;;;;;;22.27;12.68;;;4.10;99.90;;;;;;5031558;28;20052;-72
2022/03/01 08:35:30;;;;;;;17.00;10.85;;;4.10;99.90;;;;;;5035918;28;20506;-73
2022/03/01 08:38:00;;;;;;;18.13;10.52;;;4.30;99.90;;;;;;5014214;28;20038;-73
2022/03/01 08:40:25;;;;;;;18.40;11.73;;;4.30;99.90;;;;;;4999473;28;20034;-73
2022/03/01 08:42:51;;;;;;;17.88;11.05;;;4.40;99.90;;;;;;5015247;28;20164;-73
2022/03/01 08:45:17;;;;;;;21.65;11.75;;;4.50;99.90;;;;;;5015681;28;20057;-73
2022/03/01 08:47:42;;;;;;;17.35;11.10;;;4.60;99.90;;;;;;5019500;28;20548;-73
2022/03/01 08:50:09;;;;;;;17.38;10.35;;;4.60;99.90;;;;;;5032875;28;20490;-75
2022/03/01 08:52:34;;;;;;;17.45;10.48;;;4.70;99.90;;;;;;5015867;28;20045;-77
2022/03/01 08:55:00;;;;;;;18.85;11.40;;;4.80;99.90;;;;;;5002209;28;20052;-73
2022/03/01 08:57:26;;;;;;;17.92;11.05;;;4.90;99.90;;;;;;5030420;28;20046;-73
2022/03/01 08:59:51;;;;;;;16.98;10.93;;;5.10;99.70;;;;;;5030677;28;20124;-72
2022/03/01 09:02:19;;;;;;;18.70;11.32;;;5.30;99.30;;;;;;5015741;28;20058;-72
2022/03/01 09:04:45;;;;;;;16.00;10.77;;;5.40;97.90;;;;;;5015402;28;20816;-73
2022/03/01 09:07:10;;;;;;;18.35;10.98;;;5.50;97.80;;;;;;5017174;28;20384;-73
2022/03/01 09:09:36;;;;;;;17.58;10.50;;;5.50;97.30;;;;;;5019492;28;20141;-72
2022/03/01 09:12:02;;;;;;;17.90;11.02;;;5.60;97.10;;;;;;5036193;28;20486;-72
2022/03/01 09:14:27;;;;;;;19.00;10.95;;;5.70;97.30;;;;;;5028325;28;20026;-72
2022/03/01 09:16:54;;;;;;;17.95;10.65;;;5.70;97.20;;;;;;5015122;28;20041;-73
2022/03/01 09:19:19;;;;;;;19.67;11.23;;;5.80;97.40;;;;;;5016837;28;20053;-72
2022/03/01 09:21:45;;;;;;;17.48;10.85;;;5.80;97.50;;;;;;5031529;28;20045;-73
2022/03/01 09:24:11;;;;;;;16.55;10.75;;;5.90;97.00;;;;;;5019414;28;20037;-73
2022/03/01 09:26:36;;;;;;;18.88;11.98;;;6.00;97.70;;;;;;5015667;28;20036;-73
2022/03/01 09:29:03;;;;;;;17.63;9.55;;;6.00;96.30;;;;;;5032758;28;20163;-73
2022/03/01 09:31:28;;;;;;;18.25;10.15;;;6.00;95.30;;;;;;5034532;28;20037;-73
2022/03/01 09:33:54;;;;;;;17.77;10.57;;;6.10;95.20;;;;;;5023988;28;20050;-73
2022/03/01 09:36:20;;;;;;;17.77;10.32;;;6.20;94.70;;;;;;5030459;28;20130;-73
2022/03/01 09:38:45;;;;;;;16.45;9.75;;;6.20;94.50;;;;;;4998358;28;20042;-73
2022/03/01 09:41:12;;;;;;;18.88;10.60;;;6.20;93.40;;;;;;5029132;28;20037;-73
2022/03/01 09:43:39;;;;;;;16.50;10.35;;;6.10;94.70;;;;;;5018492;28;20048;-73
2022/03/01 09:46:06;;;;;;;17.17;10.45;;;6.20;95.60;;;;;;5016082;28;20422;-73
2022/03/01 09:48:31;;;;;;;20.17;11.43;;;6.20;96.20;;;;;;5012145;28;20046;-73
2022/03/01 09:50:59;;;;;;;18.05;10.85;;;6.30;95.60;;;;;;5016109;28;20406;-73
2022/03/01 09:53:26;;;;;;;17.27;10.48;;;6.40;95.20;;;;;;5013953;28;20041;-73
2022/03/01 09:55:53;;;;;;;17.85;10.60;;;6.40;95.00;;;;;;5014313;28;20041;-73
2022/03/01 09:58:18;;;;;;;18.77;11.48;;;6.40;94.10;;;;;;5015383;28;20119;-73
2022/03/01 10:00:45;;;;;;;16.48;11.05;;;6.40;94.50;;;;;;5030538;28;20034;-73
2022/03/01 10:03:15;;;;;;;15.63;10.45;;;6.40;95.20;;;;;;5026765;28;20048;-73
2022/03/01 10:05:42;;;;;;;16.45;10.57;;;6.40;95.50;;;;;;5021054;28;20069;-73
2022/03/01 10:08:13;;;;;;;17.98;11.07;;;6.50;94.90;;;;;;5024920;28;20445;-73
2022/03/01 10:10:43;;;;;;;18.63;11.20;;;6.50;94.80;;;;;;5033724;28;20054;-73
2022/03/01 10:13:09;;;;;;;16.42;10.45;;;6.50;95.10;;;;;;5017992;28;20452;-73
2022/03/01 10:15:35;;;;;;;17.60;10.90;;;6.50;95.90;;;;;;5015001;28;20502;-73
2022/03/01 10:18:15;;;;;;;21.45;11.15;;;6.50;96.50;;;;;;5013922;28;20038;-73
2022/03/01 10:20:44;;;;;;;16.77;11.45;;;6.60;95.90;;;;;;5017014;28;20043;-73
2022/03/01 10:23:10;;;;;;;18.08;10.65;;;6.60;96.00;;;;;;5016490;28;20558;-73
2022/03/01 10:25:39;;;;;;;18.95;11.23;;;6.70;95.40;;;;;;5013774;28;20041;-73
2022/03/01 10:28:05;;;;;;;18.90;10.45;;;6.70;95.50;;;;;;5015688;28;20091;-73
2022/03/01 10:30:34;;;;;;;16.10;10.15;;;6.80;95.00;;;;;;5006718;28;20056;-73
2022/03/01 10:33:12;;;;;;;17.45;10.57;;;7.00;93.30;;;;;;5034262;28;20128;-73
2022/03/01 10:35:41;;;;;;;18.08;10.95;;;7.10;92.80;;;;;;5024601;28;20437;-73
2022/03/01 10:38:08;;;;;;;17.77;10.73;;;7.10;92.30;;;;;;5028128;28;20045;-73
2022/03/01 10:40:36;;;;;;;18.35;11.50;;;7.20;93.60;;;;;;5013529;28;20034;-73
2022/03/01 10:43:09;;;;;;;16.15;10.52;;;7.40;92.80;;;;;;5023770;28;20087;-73
2022/03/01 10:45:36;;;;;;;18.67;11.15;;;7.50;91.40;;;;;;5014022;28;20050;-73
2022/03/01 10:48:03;;;;;;;18.08;11.25;;;7.60;91.10;;;;;;5016983;28;20046;-73
2022/03/01 10:50:28;;;;;;;18.42;11.10;;;7.60;91.60;;;;;;5028805;28;20047;-73
2022/03/01 10:52:54;;;;;;;16.52;10.93;;;7.70;90.70;;;;;;5034357;28;20041;-73
2022/03/01 10:55:46;;;;;;;17.70;11.48;;;7.80;91.50;;;;;;5030374;28;20413;-73
2022/03/01 10:58:12;;;;;;;19.27;11.60;;;7.80;92.80;;;;;;5024161;28;20045;-73
2022/03/01 11:00:39;;;;;;;17.80;10.85;;;7.90;91.60;;;;;;5030505;28;20119;-73
2022/03/01 11:03:06;;;;;;;17.10;10.68;;;8.00;92.40;;;;;;5015141;28;20041;-74
2022/03/01 11:05:32;;;;;;;17.23;11.13;;;8.10;90.10;;;;;;5020359;28;20042;-74
2022/03/01 11:08:04;;;;;;;17.88;12.20;;;8.20;86.80;;;;;;5023207;28;20056;-73
2022/03/01 11:10:32;;;;;;;16.73;10.43;;;8.10;90.20;;;;;;5025850;28;20049;-73
2022/03/01 11:13:00;;;;;;;20.60;11.02;;;8.20;90.80;;;;;;5019724;28;20042;-73
2022/03/01 11:15:47;;;;;;;18.98;12.05;;;8.30;91.60;;;;;;5013197;28;20088;-73
2022/03/01 11:18:27;;;;;;;18.75;12.18;;;8.40;87.40;;;;;;5018404;28;20037;-73
2022/03/01 11:20:54;;;;;;;17.65;11.98;;;8.40;87.50;;;;;;5033564;28;20040;-73
2022/03/01 11:23:23;;;;;;;17.55;11.40;;;8.40;86.80;;;;;;5031320;28;20087;-74
2022/03/01 11:25:49;;;;;;;17.75;12.30;;;8.50;79.70;;;;;;5012098;28;20073;-74
2022/03/01 11:28:16;;;;;;;18.85;11.93;;;8.30;84.20;;;;;;5032171;28;20525;-73
2022/03/01 11:30:51;;;;;;;17.65;11.25;;;8.30;84.80;;;;;;5014008;28;20486;-73
2022/03/01 11:33:28;;;;;;;19.63;11.20;;;8.30;85.20;;;;;;5015556;28;20052;-73
2022/03/01 11:35:55;;;;;;;18.88;11.48;;;8.30;84.70;;;;;;5031508;28;20524;-74
2022/03/01 11:38:28;;;;;;;17.67;12.05;;;8.40;85.40;;;;;;5021110;28;20045;-74
2022/03/01 11:41:00;;;;;;;19.17;12.23;;;8.50;83.30;;;;;;5028259;28;20120;-74
2022/03/01 11:43:28;;;;;;;21.00;12.30;;;8.40;82.50;;;;;;5031761;28;20037;-74
2022/03/01 11:45:56;;;;;;;17.98;11.55;;;8.50;82.40;;;;;;5014482;28;20129;-73
2022/03/01 11:48:27;;;;;;;19.92;12.18;;;8.30;85.50;;;;;;5046015;28;20120;-73
2022/03/01 11:51:03;;;;;;;19.50;11.77;;;8.40;82.40;;;;;;5036526;28;20041;-73
2022/03/01 11:53:35;;;;;;;18.33;12.00;;;8.40;81.60;;;;;;5030883;28;20049;-73
2022/03/01 11:56:03;;;;;;;18.90;12.38;;;8.30;85.10;;;;;;5014485;28;20077;-74
2022/03/01 11:58:30;;;;;;;19.45;12.77;;;8.30;85.20;;;;;;5030859;28;20046;-73
2022/03/01 12:00:58;;;;;;;17.95;11.90;;;8.30;88.20;;;;;;5017939;28;20540;-73
2022/03/01 12:03:28;;;;;;;16.67;11.63;;;8.30;87.60;;;;;;5017449;28;20045;-73
2022/03/01 12:05:55;;;;;;;19.90;12.60;;;8.40;87.60;;;;;;5031717;28;20041;-73
2022/03/01 12:08:21;;;;;;;17.02;11.85;;;8.30;88.10;;;;;;5023296;28;20445;-73
2022/03/01 12:10:57;;;;;;;19.85;12.55;;;8.30;88.80;;;;;;5031708;28;20045;-73
2022/03/01 12:13:37;;;;;;;17.98;11.80;;;8.30;88.00;;;;;;5029803;28;20107;-73
2022/03/01 12:16:04;;;;;;;18.42;11.77;;;8.30;89.20;;;;;;5011806;28;20458;-73
2022/03/01 12:18:33;;;;;;;18.25;12.30;;;8.40;86.30;;;;;;5016571;28;20038;-73
2022/03/01 12:21:05;;;;;;;19.70;13.07;;;8.40;88.20;;;;;;5010883;28;20293;-74
2022/03/01 12:23:32;;;;;;;;;;;8.40;88.50;;;;;;5025409;28;20095;-73
2022/03/01 12:26:10;;;;;;;19.25;12.25;;;8.40;89.50;;;;;;5019890;28;20016;-74
2022/03/01 12:28:39;;;;;;;19.05;12.32;;;8.40;90.00;;;;;;5016877;28;20049;-73
2022/03/01 12:31:18;;;;;;;18.00;11.57;;;8.50;89.10;;;;;;5012004;28;20494;-73
2022/03/01 12:33:59;;;;;;;17.85;11.90;;;8.50;90.40;;;;;;5011277;28;20394;-73
2022/03/01 12:36:34;;;;;;;18.27;12.85;;;8.60;88.10;;;;;;5011680;28;20049;-73
2022/03/01 12:39:11;;;;;;;19.85;12.75;;;8.50;90.20;;;;;;5013674;28;20073;-74
2022/03/01 12:41:38;;;;;;;17.83;11.82;;;8.40;84.30;;;;;;5011362;28;20080;-74